sensor_id;sensor_type;location;lat;lon;timestamp;pressure;altitude;pressure_sealevel;temperature;humidity
58072;BME280;60383;46.626;18.866;2023-02-11T00:01:45;102567.94;;;-0.90;60.92
58072;BME280;60383;46.626;18.866;2023-02-11T00:04:10;102565.44;;;-1.01;61.88
58072;BME280;60383;46.626;18.866;2023-02-11T00:06:36;102576.56;;;-1.20;62.19
58072;BME280;60383;46.626;18.866;2023-02-11T00:09:02;102569.56;;;-1.29;62.46
58072;BME280;60383;46.626;18.866;2023-02-11T00:11:28;102575.09;;;-1.38;63.15
58072;BME280;60383;46.626;18.866;2023-02-11T00:14:01;102573.31;;;-1.37;63.31
58072;BME280;60383;46.626;18.866;2023-02-11T00:16:28;102570.38;;;-1.23;63.13
58072;BME280;60383;46.626;18.866;2023-02-11T00:18:54;102566.97;;;-1.33;63.25
58072;BME280;60383;46.626;18.866;2023-02-11T00:21:22;102563.28;;;-1.29;63.44
58072;BME280;60383;46.626;18.866;2023-02-11T00:23:48;102564.19;;;-1.29;63.19
58072;BME280;60383;46.626;18.866;2023-02-11T00:26:19;102560.69;;;-1.34;62.73
58072;BME280;60383;46.626;18.866;2023-02-11T00:28:46;102559.91;;;-1.40;62.94
58072;BME280;60383;46.626;18.866;2023-02-11T00:31:14;102566.16;;;-1.40;63.13
58072;BME280;60383;46.626;18.866;2023-02-11T00:33:40;102554.59;;;-1.42;63.48
58072;BME280;60383;46.626;18.866;2023-02-11T00:36:09;102564.47;;;-1.44;63.31
58072;BME280;60383;46.626;18.866;2023-02-11T00:38:35;102552.72;;;-1.38;62.92
58072;BME280;60383;46.626;18.866;2023-02-11T00:41:00;102556.50;;;-1.50;63.68
58072;BME280;60383;46.626;18.866;2023-02-11T00:43:25;102555.56;;;-1.48;63.21
58072;BME280;60383;46.626;18.866;2023-02-11T00:45:51;102557.47;;;-1.53;63.68
58072;BME280;60383;46.626;18.866;2023-02-11T00:48:17;102549.06;;;-1.34;63.14
58072;BME280;60383;46.626;18.866;2023-02-11T00:50:42;102557.00;;;-1.28;63.28
58072;BME280;60383;46.626;18.866;2023-02-11T00:53:07;102546.38;;;-1.34;62.85
58072;BME280;60383;46.626;18.866;2023-02-11T00:55:33;102547.16;;;-1.27;63.10
58072;BME280;60383;46.626;18.866;2023-02-11T00:57:58;102541.91;;;-1.35;62.69
58072;BME280;60383;46.626;18.866;2023-02-11T01:00:25;102535.66;;;-1.36;62.94
58072;BME280;60383;46.626;18.866;2023-02-11T01:02:51;102532.28;;;-1.49;63.46
58072;BME280;60383;46.626;18.866;2023-02-11T01:05:17;102529.69;;;-1.53;63.51
58072;BME280;60383;46.626;18.866;2023-02-11T01:07:43;102526.19;;;-1.58;64.61
58072;BME280;60383;46.626;18.866;2023-02-11T01:10:09;102525.75;;;-1.85;64.78
58072;BME280;60383;46.626;18.866;2023-02-11T01:12:34;102527.44;;;-1.78;64.59
58072;BME280;60383;46.626;18.866;2023-02-11T01:15:00;102516.56;;;-1.72;64.21
58072;BME280;60383;46.626;18.866;2023-02-11T01:17:26;102515.72;;;-1.74;64.40
58072;BME280;60383;46.626;18.866;2023-02-11T01:19:51;102510.88;;;-1.52;63.51
58072;BME280;60383;46.626;18.866;2023-02-11T01:22:17;102511.50;;;-1.37;62.73
58072;BME280;60383;46.626;18.866;2023-02-11T01:24:42;102505.63;;;-1.13;61.96
58072;BME280;60383;46.626;18.866;2023-02-11T01:27:07;102501.94;;;-1.07;61.38
58072;BME280;60383;46.626;18.866;2023-02-11T01:29:33;102504.75;;;-1.15;61.64
58072;BME280;60383;46.626;18.866;2023-02-11T01:31:59;102499.09;;;-1.46;62.40
58072;BME280;60383;46.626;18.866;2023-02-11T01:34:25;102496.19;;;-1.35;62.29
58072;BME280;60383;46.626;18.866;2023-02-11T01:36:50;102497.50;;;-1.11;61.91
58072;BME280;60383;46.626;18.866;2023-02-11T01:39:15;102490.22;;;-1.06;61.20
58072;BME280;60383;46.626;18.866;2023-02-11T01:41:41;102484.94;;;-1.09;61.99
58072;BME280;60383;46.626;18.866;2023-02-11T01:44:34;102482.28;;;-1.10;61.55
58072;BME280;60383;46.626;18.866;2023-02-11T01:46:59;102479.88;;;-1.26;62.07
58072;BME280;60383;46.626;18.866;2023-02-11T01:49:28;102474.66;;;-1.34;61.89
58072;BME280;60383;46.626;18.866;2023-02-11T01:52:21;102465.75;;;-1.36;62.21
58072;BME280;60383;46.626;18.866;2023-02-11T01:54:52;102468.56;;;-1.42;62.15
58072;BME280;60383;46.626;18.866;2023-02-11T01:57:38;102470.78;;;-1.66;63.10
58072;BME280;60383;46.626;18.866;2023-02-11T02:00:16;102465.69;;;-1.80;63.59
58072;BME280;60383;46.626;18.866;2023-02-11T02:10:56;102465.38;;;-1.63;62.69
58072;BME280;60383;46.626;18.866;2023-02-11T02:13:26;102458.22;;;-1.64;62.62
58072;BME280;60383;46.626;18.866;2023-02-11T02:15:53;102456.53;;;-1.69;62.81
58072;BME280;60383;46.626;18.866;2023-02-11T02:37:54;102447.13;;;-2.48;66.59
58072;BME280;60383;46.626;18.866;2023-02-11T02:40:35;102440.16;;;-2.04;64.29
58072;BME280;60383;46.626;18.866;2023-02-11T02:43:03;102447.09;;;-1.94;64.28
58072;BME280;60383;46.626;18.866;2023-02-11T02:45:29;102447.19;;;-1.98;63.85
58072;BME280;60383;46.626;18.866;2023-02-11T02:47:54;102436.50;;;-2.01;64.06
58072;BME280;60383;46.626;18.866;2023-02-11T02:50:25;102440.81;;;-2.44;65.42
58072;BME280;60383;46.626;18.866;2023-02-11T02:55:37;102443.63;;;-2.53;66.52
58072;BME280;60383;46.626;18.866;2023-02-11T03:01:02;102438.56;;;-2.72;66.44
58072;BME280;60383;46.626;18.866;2023-02-11T03:03:44;102441.25;;;-2.75;67.01
58072;BME280;60383;46.626;18.866;2023-02-11T03:09:27;102428.41;;;-2.53;66.30
58072;BME280;60383;46.626;18.866;2023-02-11T03:11:54;102423.94;;;-2.54;66.05
58072;BME280;60383;46.626;18.866;2023-02-11T03:14:21;102432.00;;;-2.54;66.21
58072;BME280;60383;46.626;18.866;2023-02-11T03:16:49;102433.66;;;-2.47;66.19
58072;BME280;60383;46.626;18.866;2023-02-11T03:19:23;102429.13;;;-2.43;65.83
58072;BME280;60383;46.626;18.866;2023-02-11T03:21:52;102428.38;;;-2.50;66.03
58072;BME280;60383;46.626;18.866;2023-02-11T03:24:28;102432.94;;;-2.57;66.25
58072;BME280;60383;46.626;18.866;2023-02-11T03:27:04;102432.66;;;-2.39;65.94
58072;BME280;60383;46.626;18.866;2023-02-11T03:29:38;102431.75;;;-2.37;65.83
58072;BME280;60383;46.626;18.866;2023-02-11T03:34:47;102434.38;;;-2.34;65.13
58072;BME280;60383;46.626;18.866;2023-02-11T03:39:44;102432.66;;;-2.39;65.90
58072;BME280;60383;46.626;18.866;2023-02-11T03:42:11;102425.59;;;-2.44;65.50
58072;BME280;60383;46.626;18.866;2023-02-11T03:44:44;102419.75;;;-2.16;64.83
58072;BME280;60383;46.626;18.866;2023-02-11T03:47:11;102427.19;;;-2.32;64.91
58072;BME280;60383;46.626;18.866;2023-02-11T03:49:39;102415.16;;;-2.09;63.72
58072;BME280;60383;46.626;18.866;2023-02-11T03:52:07;102417.63;;;-1.98;63.56
58072;BME280;60383;46.626;18.866;2023-02-11T03:54:37;102412.53;;;-2.12;63.63
58072;BME280;60383;46.626;18.866;2023-02-11T03:57:04;102421.69;;;-2.24;63.92
58072;BME280;60383;46.626;18.866;2023-02-11T03:59:29;102416.81;;;-2.57;64.82
58072;BME280;60383;46.626;18.866;2023-02-11T04:01:55;102413.13;;;-2.48;65.29
58072;BME280;60383;46.626;18.866;2023-02-11T04:04:21;102406.31;;;-2.70;65.68
58072;BME280;60383;46.626;18.866;2023-02-11T04:06:47;102408.38;;;-2.90;66.27
58072;BME280;60383;46.626;18.866;2023-02-11T04:09:13;102403.22;;;-3.05;66.78
58072;BME280;60383;46.626;18.866;2023-02-11T04:11:39;102398.81;;;-3.06;67.09
58072;BME280;60383;46.626;18.866;2023-02-11T04:14:04;102403.56;;;-3.27;67.64
58072;BME280;60383;46.626;18.866;2023-02-11T04:16:30;102404.47;;;-3.28;67.97
58072;BME280;60383;46.626;18.866;2023-02-11T04:18:56;102392.28;;;-2.90;66.77
58072;BME280;60383;46.626;18.866;2023-02-11T04:21:21;102391.97;;;-2.68;66.30
58072;BME280;60383;46.626;18.866;2023-02-11T04:23:47;102394.47;;;-2.55;65.42
58072;BME280;60383;46.626;18.866;2023-02-11T04:26:13;102397.22;;;-2.59;65.91
58072;BME280;60383;46.626;18.866;2023-02-11T04:28:38;102392.50;;;-2.44;65.44
58072;BME280;60383;46.626;18.866;2023-02-11T04:31:04;102379.78;;;-2.33;65.17
58072;BME280;60383;46.626;18.866;2023-02-11T04:33:29;102367.53;;;-2.48;65.23
58072;BME280;60383;46.626;18.866;2023-02-11T04:35:55;102370.16;;;-2.46;65.53
58072;BME280;60383;46.626;18.866;2023-02-11T04:38:20;102378.44;;;-2.60;65.61
58072;BME280;60383;46.626;18.866;2023-02-11T04:40:48;102364.28;;;-2.68;66.22
58072;BME280;60383;46.626;18.866;2023-02-11T04:43:14;102366.94;;;-2.67;66.08
58072;BME280;60383;46.626;18.866;2023-02-11T04:45:39;102370.88;;;-2.91;66.38
58072;BME280;60383;46.626;18.866;2023-02-11T04:48:05;102358.44;;;-2.95;67.06
58072;BME280;60383;46.626;18.866;2023-02-11T04:50:30;102360.28;;;-3.00;66.92
58072;BME280;60383;46.626;18.866;2023-02-11T04:52:56;102359.50;;;-3.09;67.35
58072;BME280;60383;46.626;18.866;2023-02-11T04:55:21;102351.41;;;-3.04;66.87
58072;BME280;60383;46.626;18.866;2023-02-11T04:57:46;102350.72;;;-3.20;67.53
58072;BME280;60383;46.626;18.866;2023-02-11T05:00:12;102346.03;;;-3.02;67.13
58072;BME280;60383;46.626;18.866;2023-02-11T05:02:38;102341.19;;;-2.79;66.49
58072;BME280;60383;46.626;18.866;2023-02-11T05:05:04;102335.31;;;-2.48;65.16
58072;BME280;60383;46.626;18.866;2023-02-11T05:07:30;102338.78;;;-2.43;64.71
58072;BME280;60383;46.626;18.866;2023-02-11T05:09:55;102339.97;;;-2.59;65.03
58072;BME280;60383;46.626;18.866;2023-02-11T05:12:21;102352.03;;;-2.88;66.06
58072;BME280;60383;46.626;18.866;2023-02-11T05:14:46;102344.00;;;-2.88;66.29
58072;BME280;60383;46.626;18.866;2023-02-11T05:17:11;102338.97;;;-3.08;66.40
58072;BME280;60383;46.626;18.866;2023-02-11T05:19:37;102345.16;;;-3.05;67.01
58072;BME280;60383;46.626;18.866;2023-02-11T05:22:03;102351.28;;;-2.96;66.65
58072;BME280;60383;46.626;18.866;2023-02-11T05:24:32;102348.63;;;-2.98;66.56
58072;BME280;60383;46.626;18.866;2023-02-11T05:26:57;102353.41;;;-3.20;66.83
58072;BME280;60383;46.626;18.866;2023-02-11T05:29:22;102344.66;;;-3.31;67.28
58072;BME280;60383;46.626;18.866;2023-02-11T05:31:48;102353.66;;;-3.37;67.81
58072;BME280;60383;46.626;18.866;2023-02-11T05:34:13;102352.50;;;-3.19;67.51
58072;BME280;60383;46.626;18.866;2023-02-11T05:36:39;102347.72;;;-2.97;66.36
58072;BME280;60383;46.626;18.866;2023-02-11T05:39:04;102342.31;;;-2.94;66.27
58072;BME280;60383;46.626;18.866;2023-02-11T05:41:30;102347.50;;;-2.84;66.10
58072;BME280;60383;46.626;18.866;2023-02-11T05:43:55;102344.00;;;-2.86;66.21
58072;BME280;60383;46.626;18.866;2023-02-11T05:46:21;102341.81;;;-2.61;65.36
58072;BME280;60383;46.626;18.866;2023-02-11T05:48:46;102345.16;;;-2.48;64.90
58072;BME280;60383;46.626;18.866;2023-02-11T05:51:11;102344.91;;;-2.34;64.24
58072;BME280;60383;46.626;18.866;2023-02-11T05:53:37;102345.88;;;-2.38;65.25
58072;BME280;60383;46.626;18.866;2023-02-11T05:56:02;102354.91;;;-2.43;66.03
58072;BME280;60383;46.626;18.866;2023-02-11T05:58:28;102360.09;;;-2.33;66.08
58072;BME280;60383;46.626;18.866;2023-02-11T06:00:53;102360.09;;;-2.33;67.23
58072;BME280;60383;46.626;18.866;2023-02-11T06:03:19;102361.81;;;-2.29;66.35
58072;BME280;60383;46.626;18.866;2023-02-11T06:05:45;102359.50;;;-2.51;66.38
58072;BME280;60383;46.626;18.866;2023-02-11T06:08:11;102367.38;;;-2.40;65.97
58072;BME280;60383;46.626;18.866;2023-02-11T06:10:36;102367.63;;;-2.55;66.65
58072;BME280;60383;46.626;18.866;2023-02-11T06:13:02;102365.75;;;-2.49;66.50
58072;BME280;60383;46.626;18.866;2023-02-11T06:15:27;102362.59;;;-2.21;65.44
58072;BME280;60383;46.626;18.866;2023-02-11T06:17:53;102353.69;;;-2.26;65.49
58072;BME280;60383;46.626;18.866;2023-02-11T06:20:19;102351.56;;;-2.07;65.35
58072;BME280;60383;46.626;18.866;2023-02-11T06:22:44;102354.47;;;-1.71;65.33
58072;BME280;60383;46.626;18.866;2023-02-11T06:25:10;102353.94;;;-1.45;63.52
58072;BME280;60383;46.626;18.866;2023-02-11T06:27:36;102361.03;;;-1.42;62.82
58072;BME280;60383;46.626;18.866;2023-02-11T06:30:03;102350.88;;;-1.29;62.15
58072;BME280;60383;46.626;18.866;2023-02-11T06:32:29;102361.78;;;-1.35;62.24
58072;BME280;60383;46.626;18.866;2023-02-11T06:34:54;102360.13;;;-1.41;62.02
58072;BME280;60383;46.626;18.866;2023-02-11T06:37:20;102354.47;;;-1.29;62.34
58072;BME280;60383;46.626;18.866;2023-02-11T06:39:45;102354.94;;;-1.09;61.68
58072;BME280;60383;46.626;18.866;2023-02-11T06:42:11;102358.41;;;-1.04;61.91
58072;BME280;60383;46.626;18.866;2023-02-11T06:44:36;102352.38;;;-0.76;61.70
58072;BME280;60383;46.626;18.866;2023-02-11T06:47:02;102348.34;;;-0.58;61.05
58072;BME280;60383;46.626;18.866;2023-02-11T06:49:27;102347.63;;;-0.30;60.30
58072;BME280;60383;46.626;18.866;2023-02-11T06:51:53;102351.19;;;0.38;58.13
58072;BME280;60383;46.626;18.866;2023-02-11T06:54:18;102342.63;;;1.11;56.27
58072;BME280;60383;46.626;18.866;2023-02-11T06:56:44;102343.47;;;1.14;56.62
58072;BME280;60383;46.626;18.866;2023-02-11T06:59:19;102340.66;;;1.72;54.22
58072;BME280;60383;46.626;18.866;2023-02-11T07:01:45;102339.09;;;2.64;52.28
58072;BME280;60383;46.626;18.866;2023-02-11T07:04:10;102330.66;;;3.61;50.64
58072;BME280;60383;46.626;18.866;2023-02-11T07:06:36;102334.91;;;4.49;48.79
58072;BME280;60383;46.626;18.866;2023-02-11T07:09:03;102320.72;;;5.19;45.92
58072;BME280;60383;46.626;18.866;2023-02-11T07:11:30;102330.53;;;4.85;45.82
58072;BME280;60383;46.626;18.866;2023-02-11T07:13:59;102336.19;;;5.90;45.25
58072;BME280;60383;46.626;18.866;2023-02-11T07:16:25;102323.78;;;6.53;43.13
58072;BME280;60383;46.626;18.866;2023-02-11T07:18:51;102319.31;;;6.52;43.09
58072;BME280;60383;46.626;18.866;2023-02-11T07:21:19;102323.31;;;6.78;42.46
58072;BME280;60383;46.626;18.866;2023-02-11T07:23:45;102325.94;;;6.80;41.63
58072;BME280;60383;46.626;18.866;2023-02-11T07:26:13;102318.28;;;6.70;41.93
58072;BME280;60383;46.626;18.866;2023-02-11T07:28:39;102320.22;;;6.84;41.59
58072;BME280;60383;46.626;18.866;2023-02-11T07:33:31;102312.72;;;7.36;40.38
58072;BME280;60383;46.626;18.866;2023-02-11T07:35:59;102314.34;;;6.92;41.43
58072;BME280;60383;46.626;18.866;2023-02-11T07:38:25;102318.16;;;6.56;42.89
58072;BME280;60383;46.626;18.866;2023-02-11T07:40:51;102312.47;;;6.61;43.22
58072;BME280;60383;46.626;18.866;2023-02-11T07:43:16;102314.13;;;6.63;41.55
58072;BME280;60383;46.626;18.866;2023-02-11T07:45:41;102308.53;;;6.66;42.57
58072;BME280;60383;46.626;18.866;2023-02-11T07:48:07;102310.63;;;6.61;43.17
58072;BME280;60383;46.626;18.866;2023-02-11T07:50:32;102315.50;;;6.88;41.31
58072;BME280;60383;46.626;18.866;2023-02-11T07:52:58;102303.47;;;6.43;42.92
58072;BME280;60383;46.626;18.866;2023-02-11T07:55:23;102303.47;;;6.09;43.01
58072;BME280;60383;46.626;18.866;2023-02-11T07:57:48;102314.41;;;6.25;43.39
58072;BME280;60383;46.626;18.866;2023-02-11T08:00:15;102302.44;;;6.45;43.04
58072;BME280;60383;46.626;18.866;2023-02-11T08:02:41;102306.50;;;6.54;42.94
58072;BME280;60383;46.626;18.866;2023-02-11T08:05:07;102300.28;;;6.84;42.49
58072;BME280;60383;46.626;18.866;2023-02-11T08:07:32;102295.88;;;6.97;42.50
58072;BME280;60383;46.626;18.866;2023-02-11T08:09:58;102298.53;;;6.99;41.95
58072;BME280;60383;46.626;18.866;2023-02-11T08:12:23;102299.03;;;7.22;42.27
58072;BME280;60383;46.626;18.866;2023-02-11T08:14:49;102307.63;;;7.30;42.66
58072;BME280;60383;46.626;18.866;2023-02-11T08:17:15;102299.63;;;7.43;42.21
58072;BME280;60383;46.626;18.866;2023-02-11T08:19:41;102306.78;;;7.60;40.53
58072;BME280;60383;46.626;18.866;2023-02-11T08:22:07;102302.78;;;7.51;40.26
58072;BME280;60383;46.626;18.866;2023-02-11T08:24:32;102305.84;;;7.45;41.76
58072;BME280;60383;46.626;18.866;2023-02-11T08:26:58;102302.34;;;7.43;42.02
58072;BME280;60383;46.626;18.866;2023-02-11T08:29:23;102299.00;;;7.54;41.09
58072;BME280;60383;46.626;18.866;2023-02-11T08:31:49;102303.16;;;7.75;40.59
58072;BME280;60383;46.626;18.866;2023-02-11T08:34:15;102297.16;;;7.99;38.68
58072;BME280;60383;46.626;18.866;2023-02-11T08:36:43;102302.34;;;8.18;39.22
58072;BME280;60383;46.626;18.866;2023-02-11T08:39:20;102300.78;;;7.99;39.28
58072;BME280;60383;46.626;18.866;2023-02-11T08:41:51;102303.16;;;7.75;38.61
58072;BME280;60383;46.626;18.866;2023-02-11T08:44:18;102292.91;;;7.48;39.26
58072;BME280;60383;46.626;18.866;2023-02-11T08:46:44;102304.22;;;7.10;40.71
58072;BME280;60383;46.626;18.866;2023-02-11T08:49:10;102300.13;;;6.87;41.08
58072;BME280;60383;46.626;18.866;2023-02-11T08:51:35;102294.47;;;6.90;41.17
58072;BME280;60383;46.626;18.866;2023-02-11T08:54:01;102286.13;;;6.77;41.63
58072;BME280;60383;46.626;18.866;2023-02-11T08:56:27;102294.66;;;6.55;41.06
58072;BME280;60383;46.626;18.866;2023-02-11T08:58:53;102283.56;;;6.42;40.98
58072;BME280;60383;46.626;18.866;2023-02-11T09:01:22;102286.50;;;6.21;41.02
58072;BME280;60383;46.626;18.866;2023-02-11T09:03:47;102285.31;;;5.92;41.58
58072;BME280;60383;46.626;18.866;2023-02-11T09:06:13;102278.59;;;5.82;41.94
58072;BME280;60383;46.626;18.866;2023-02-11T09:08:44;102279.09;;;5.72;42.54
58072;BME280;60383;46.626;18.866;2023-02-11T09:11:10;102285.22;;;5.58;42.95
58072;BME280;60383;46.626;18.866;2023-02-11T09:13:36;102289.00;;;5.38;43.88
58072;BME280;60383;46.626;18.866;2023-02-11T09:16:03;102291.25;;;5.65;43.79
58072;BME280;60383;46.626;18.866;2023-02-11T09:18:30;102292.81;;;5.34;43.56
58072;BME280;60383;46.626;18.866;2023-02-11T09:21:07;102302.72;;;5.53;44.11
58072;BME280;60383;46.626;18.866;2023-02-11T09:23:34;102302.72;;;5.35;43.22
58072;BME280;60383;46.626;18.866;2023-02-11T09:26:05;102297.41;;;5.15;44.02
58072;BME280;60383;46.626;18.866;2023-02-11T09:28:31;102295.66;;;4.94;43.56
58072;BME280;60383;46.626;18.866;2023-02-11T09:30:56;102284.84;;;4.75;44.41
58072;BME280;60383;46.626;18.866;2023-02-11T09:33:22;102289.44;;;4.92;44.78
58072;BME280;60383;46.626;18.866;2023-02-11T09:35:47;102289.97;;;4.82;45.29
58072;BME280;60383;46.626;18.866;2023-02-11T09:38:13;102286.34;;;4.81;45.55
58072;BME280;60383;46.626;18.866;2023-02-11T09:40:44;102288.41;;;4.95;45.93
58072;BME280;60383;46.626;18.866;2023-02-11T09:43:21;102290.91;;;4.80;45.67
58072;BME280;60383;46.626;18.866;2023-02-11T09:45:48;102288.06;;;4.84;45.49
58072;BME280;60383;46.626;18.866;2023-02-11T09:48:17;102279.41;;;5.31;45.26
58072;BME280;60383;46.626;18.866;2023-02-11T09:51:02;102282.13;;;5.66;44.06
58072;BME280;60383;46.626;18.866;2023-02-11T09:53:34;102273.50;;;5.58;44.45
58072;BME280;60383;46.626;18.866;2023-02-11T09:56:12;102280.28;;;5.67;45.34
58072;BME280;60383;46.626;18.866;2023-02-11T09:58:43;102273.00;;;5.85;44.40
58072;BME280;60383;46.626;18.866;2023-02-11T10:01:48;102272.03;;;5.68;44.18
58072;BME280;60383;46.626;18.866;2023-02-11T10:04:13;102263.06;;;5.84;43.47
58072;BME280;60383;46.626;18.866;2023-02-11T10:06:52;102265.25;;;5.59;44.40
58072;BME280;60383;46.626;18.866;2023-02-11T10:15:12;102253.72;;;5.72;43.00
58072;BME280;60383;46.626;18.866;2023-02-11T10:23:14;102236.09;;;6.14;42.34
58072;BME280;60383;46.626;18.866;2023-02-11T10:25:43;102229.50;;;5.67;42.47
58072;BME280;60383;46.626;18.866;2023-02-11T10:28:19;102222.25;;;6.51;41.73
58072;BME280;60383;46.626;18.866;2023-02-11T10:30:57;102220.44;;;6.51;40.86
58072;BME280;60383;46.626;18.866;2023-02-11T10:36:02;102214.72;;;6.72;40.36
58072;BME280;60383;46.626;18.866;2023-02-11T10:38:28;102212.22;;;6.35;40.55
58072;BME280;60383;46.626;18.866;2023-02-11T10:40:57;102204.25;;;6.32;39.81
58072;BME280;60383;46.626;18.866;2023-02-11T10:43:25;102197.91;;;6.32;40.46
58072;BME280;60383;46.626;18.866;2023-02-11T10:45:54;102198.38;;;6.24;40.51
58072;BME280;60383;46.626;18.866;2023-02-11T10:48:41;102191.16;;;6.07;40.58
58072;BME280;60383;46.626;18.866;2023-02-11T10:51:15;102191.16;;;6.07;40.48
58072;BME280;60383;46.626;18.866;2023-02-11T10:53:41;102186.34;;;6.28;41.11
58072;BME280;60383;46.626;18.866;2023-02-11T10:56:10;102187.13;;;6.30;40.96
58072;BME280;60383;46.626;18.866;2023-02-11T10:58:45;102191.00;;;6.42;40.15
58072;BME280;60383;46.626;18.866;2023-02-11T11:01:12;102180.03;;;6.60;40.42
58072;BME280;60383;46.626;18.866;2023-02-11T11:03:49;102177.91;;;6.49;40.46
58072;BME280;60383;46.626;18.866;2023-02-11T11:06:15;102174.97;;;6.84;39.33
58072;BME280;60383;46.626;18.866;2023-02-11T11:08:52;102178.16;;;6.76;40.12
58072;BME280;60383;46.626;18.866;2023-02-11T11:11:20;102184.16;;;6.83;39.62
58072;BME280;60383;46.626;18.866;2023-02-11T11:16:22;102178.50;;;6.22;40.06
58072;BME280;60383;46.626;18.866;2023-02-11T11:19:11;102176.25;;;6.30;40.16
58072;BME280;60383;46.626;18.866;2023-02-11T11:21:43;102169.59;;;6.20;40.59
58072;BME280;60383;46.626;18.866;2023-02-11T11:24:32;102158.75;;;6.18;40.34
58072;BME280;60383;46.626;18.866;2023-02-11T11:27:00;102152.53;;;6.64;40.29
58072;BME280;60383;46.626;18.866;2023-02-11T11:29:39;102154.88;;;6.70;38.92
58072;BME280;60383;46.626;18.866;2023-02-11T11:34:40;102146.31;;;6.46;39.52
58072;BME280;60383;46.626;18.866;2023-02-11T11:37:25;102146.41;;;6.45;38.95
58072;BME280;60383;46.626;18.866;2023-02-11T11:42:38;102154.56;;;6.13;39.30
58072;BME280;60383;46.626;18.866;2023-02-11T11:47:52;102143.19;;;5.88;39.76
58072;BME280;60383;46.626;18.866;2023-02-11T11:58:22;102135.16;;;6.03;39.75
58072;BME280;60383;46.626;18.866;2023-02-11T12:17:01;102112.50;;;6.66;38.48
58072;BME280;60383;46.626;18.866;2023-02-11T12:19:41;102104.47;;;6.79;37.67
58072;BME280;60383;46.626;18.866;2023-02-11T12:23:04;102097.94;;;7.12;38.04
58072;BME280;60383;46.626;18.866;2023-02-11T12:25:26;102086.78;;;7.17;37.81
58072;BME280;60383;46.626;18.866;2023-02-11T12:30:58;102078.00;;;7.26;36.68
58072;BME280;60383;46.626;18.866;2023-02-11T12:38:52;102072.56;;;7.41;36.99
58072;BME280;60383;46.626;18.866;2023-02-11T12:41:31;102069.84;;;7.41;37.35
58072;BME280;60383;46.626;18.866;2023-02-11T12:52:42;102039.19;;;7.93;37.77
58072;BME280;60383;46.626;18.866;2023-02-11T12:57:40;102032.75;;;8.09;36.67
58072;BME280;60383;46.626;18.866;2023-02-11T13:08:20;102021.69;;;7.83;37.06
58072;BME280;60383;46.626;18.866;2023-02-11T13:10:51;102012.19;;;7.61;37.62
58072;BME280;60383;46.626;18.866;2023-02-11T13:21:55;102005.47;;;7.09;37.85
58072;BME280;60383;46.626;18.866;2023-02-11T13:30:02;101977.84;;;7.15;37.23
58072;BME280;60383;46.626;18.866;2023-02-11T13:38:24;101969.09;;;7.39;37.22
58072;BME280;60383;46.626;18.866;2023-02-11T13:43:35;101974.34;;;7.28;37.09
58072;BME280;60383;46.626;18.866;2023-02-11T13:46:11;101966.75;;;7.33;37.42
58072;BME280;60383;46.626;18.866;2023-02-11T13:48:38;101969.38;;;7.34;36.87
58072;BME280;60383;46.626;18.866;2023-02-11T13:51:13;101962.97;;;7.07;37.43
58072;BME280;60383;46.626;18.866;2023-02-11T13:53:56;101957.81;;;7.16;37.42
58072;BME280;60383;46.626;18.866;2023-02-11T13:56:31;101965.97;;;7.16;37.73
58072;BME280;60383;46.626;18.866;2023-02-11T13:58:59;101951.09;;;7.08;37.04
58072;BME280;60383;46.626;18.866;2023-02-11T14:04:21;101954.50;;;6.97;37.10
58072;BME280;60383;46.626;18.866;2023-02-11T14:07:26;101953.72;;;6.95;36.72
58072;BME280;60383;46.626;18.866;2023-02-11T14:13:25;101945.22;;;6.70;37.40
58072;BME280;60383;46.626;18.866;2023-02-11T14:16:04;101931.34;;;6.75;37.18
58072;BME280;60383;46.626;18.866;2023-02-11T14:26:58;101942.84;;;6.50;37.98
58072;BME280;60383;46.626;18.866;2023-02-11T14:32:07;101952.56;;;6.09;37.79
58072;BME280;60383;46.626;18.866;2023-02-11T14:40:01;101958.59;;;6.14;38.37
58072;BME280;60383;46.626;18.866;2023-02-11T14:42:30;101955.44;;;6.06;38.20
58072;BME280;60383;46.626;18.866;2023-02-11T14:45:02;101958.00;;;5.93;39.14
58072;BME280;60383;46.626;18.866;2023-02-11T14:47:35;101959.84;;;6.08;38.45
58072;BME280;60383;46.626;18.866;2023-02-11T14:50:05;101960.53;;;6.12;38.32
58072;BME280;60383;46.626;18.866;2023-02-11T14:52:33;101954.00;;;6.00;38.86
58072;BME280;60383;46.626;18.866;2023-02-11T14:55:26;101943.56;;;6.23;38.70
58072;BME280;60383;46.626;18.866;2023-02-11T14:58:27;101945.31;;;6.24;38.13
58072;BME280;60383;46.626;18.866;2023-02-11T15:03:48;101927.34;;;6.21;38.25
58072;BME280;60383;46.626;18.866;2023-02-11T15:06:27;101921.91;;;6.21;38.32
58072;BME280;60383;46.626;18.866;2023-02-11T15:08:58;101921.72;;;6.25;38.75
58072;BME280;60383;46.626;18.866;2023-02-11T15:11:27;101916.63;;;6.18;38.70
58072;BME280;60383;46.626;18.866;2023-02-11T15:13:57;101915.44;;;6.08;38.77
58072;BME280;60383;46.626;18.866;2023-02-11T15:16:26;101902.63;;;6.10;38.91
58072;BME280;60383;46.626;18.866;2023-02-11T15:19:05;101910.47;;;6.00;39.42
58072;BME280;60383;46.626;18.866;2023-02-11T15:21:33;101916.06;;;5.97;39.49
58072;BME280;60383;46.626;18.866;2023-02-11T15:24:21;101918.34;;;5.89;39.78
58072;BME280;60383;46.626;18.866;2023-02-11T15:27:18;101924.22;;;5.97;39.30
58072;BME280;60383;46.626;18.866;2023-02-11T15:29:49;101929.59;;;5.83;39.74
58072;BME280;60383;46.626;18.866;2023-02-11T15:32:17;101923.28;;;5.82;39.29
58072;BME280;60383;46.626;18.866;2023-02-11T15:34:46;101916.78;;;5.85;39.90
58072;BME280;60383;46.626;18.866;2023-02-11T15:37:23;101912.50;;;5.65;39.16
58072;BME280;60383;46.626;18.866;2023-02-11T15:39:50;101905.91;;;5.85;38.26
58072;BME280;60383;46.626;18.866;2023-02-11T15:44:49;101895.03;;;5.85;38.63
58072;BME280;60383;46.626;18.866;2023-02-11T15:47:32;101893.81;;;5.74;38.26